createdAt,value
2018-06-05T00:00:52.302Z,86.21
2018-06-05T00:01:52.225Z,86.49
2018-06-05T00:02:52.183Z,86.21
2018-06-05T00:03:52.138Z,85.72
2018-06-05T00:04:52.128Z,86.21
2018-06-05T00:05:52.051Z,86.30
2018-06-05T00:06:52.037Z,85.53
2018-06-05T00:07:51.962Z,86.11
2018-06-05T00:08:51.925Z,86.40
2018-06-05T00:09:51.872Z,86.30
2018-06-05T00:10:51.829Z,86.78
2018-06-05T00:11:51.818Z,86.40
2018-06-05T00:12:51.743Z,86.40
2018-06-05T00:13:51.699Z,86.21
2018-06-05T00:14:51.655Z,86.11
2018-06-05T00:15:51.616Z,86.30
2018-06-05T00:16:51.599Z,86.88
2018-06-05T00:17:51.522Z,86.21
2018-06-05T00:18:51.477Z,86.21
2018-06-05T00:19:51.434Z,86.45
2018-06-05T00:20:51.390Z,86.11
2018-06-05T00:21:51.368Z,86.16
2018-06-05T00:22:51.303Z,86.64
2018-06-05T00:23:51.256Z,87.21
2018-06-05T00:24:51.214Z,87.41
2018-06-05T00:25:51.209Z,87.50
2018-06-05T00:26:51.176Z,87.70
2018-06-05T00:27:51.079Z,87.98
2018-06-05T00:28:51.039Z,88.65
2018-06-05T00:29:50.992Z,87.31
2018-06-05T00:30:50.991Z,87.21
2018-06-05T00:31:50.905Z,86.45
2018-06-05T00:32:50.861Z,86.93
2018-06-05T00:33:50.823Z,87.50
2018-06-05T00:34:50.769Z,87.41
2018-06-05T00:35:50.760Z,87.41
2018-06-05T00:36:50.685Z,87.79
2018-06-05T00:37:50.667Z,87.31
2018-06-05T00:38:50.595Z,87.50
2018-06-05T00:39:50.582Z,88.08
2018-06-05T00:40:50.503Z,87.31
2018-06-05T00:41:50.465Z,87.31
2018-06-05T00:42:50.417Z,87.41
2018-06-05T00:43:50.373Z,87.70
2018-06-05T00:44:50.363Z,87.60
2018-06-05T00:45:50.284Z,88.17
2018-06-05T00:46:50.240Z,87.41
2018-06-05T00:47:50.195Z,87.55
2018-06-05T00:48:50.180Z,87.55
2018-06-05T00:49:50.135Z,87.08
2018-06-05T00:50:50.059Z,87.37
2018-06-05T00:51:50.016Z,87.55
2018-06-05T00:52:49.972Z,88.32
2018-06-05T00:53:49.927Z,88.66
2018-06-05T00:54:49.929Z,89.47
2018-06-05T00:55:49.840Z,88.95
2018-06-05T00:56:49.795Z,89.04
2018-06-05T00:57:49.747Z,89.04
2018-06-05T00:58:49.702Z,89.23
2018-06-05T00:59:49.709Z,89.62
2018-06-05T01:00:49.615Z,89.62
2018-06-05T01:01:49.570Z,89.28
2018-06-05T01:02:49.526Z,89.18
2018-06-05T01:03:49.481Z,89.09
2018-06-05T01:04:49.477Z,89.18
2018-06-05T01:05:49.390Z,89.86
2018-06-05T01:06:49.347Z,90.05
2018-06-05T01:07:49.302Z,89.37
2018-06-05T01:08:49.259Z,88.85
2018-06-05T01:09:49.243Z,88.85
2018-06-05T01:10:49.168Z,88.95
2018-06-05T01:11:49.124Z,89.04
2018-06-05T01:12:49.120Z,89.14
2018-06-05T01:13:49.033Z,89.43
2018-06-05T01:14:48.994Z,88.95
2018-06-05T01:15:48.943Z,89.81
2018-06-05T01:16:48.900Z,89.72
2018-06-05T01:17:48.894Z,89.90
2018-06-05T01:18:48.810Z,89.81
2018-06-05T01:19:48.765Z,90.19
2018-06-05T01:20:48.722Z,90.19
2018-06-05T01:21:48.676Z,89.90
2018-06-05T01:22:48.674Z,90.77
2018-06-05T01:23:48.584Z,90.67
2018-06-05T01:24:48.540Z,90.09
2018-06-05T01:25:48.497Z,90.29
2018-06-05T01:26:48.452Z,89.90
2018-06-05T01:27:48.439Z,90.09
2018-06-05T01:28:48.392Z,90.19
2018-06-05T01:29:48.317Z,90.09
2018-06-05T01:30:48.269Z,90.00
2018-06-05T01:31:48.227Z,90.19
2018-06-05T01:32:48.222Z,90.58
2018-06-05T01:33:48.134Z,91.58
2018-06-05T01:34:48.090Z,91.20
2018-06-05T01:35:48.049Z,90.44
2018-06-05T01:36:48.001Z,89.86
2018-06-05T01:37:47.986Z,90.05
2018-06-05T01:38:47.910Z,90.91
2018-06-05T01:39:47.905Z,91.58
2018-06-05T01:40:47.820Z,90.91
2018-06-05T01:41:47.773Z,91.11
2018-06-05T01:42:47.729Z,91.58
2018-06-05T01:43:47.686Z,91.58
2018-06-05T01:44:47.679Z,91.20
2018-06-05T01:45:47.596Z,91.39
2018-06-05T01:46:47.547Z,91.39
2018-06-05T01:47:47.507Z,91.77
2018-06-05T01:48:47.461Z,92.44
2018-06-05T01:49:47.456Z,92.83
2018-06-05T01:50:47.375Z,92.16
2018-06-05T01:51:47.331Z,91.20
2018-06-05T01:52:47.279Z,91.77
2018-06-05T01:53:47.232Z,91.77
2018-06-05T01:54:47.211Z,92.83
2018-06-05T01:55:47.173Z,93.59
2018-06-05T01:56:47.102Z,92.54
2018-06-05T01:57:47.054Z,92.44
2018-06-05T01:58:47.008Z,93.02
2018-06-05T01:59:46.961Z,92.73
2018-06-05T02:00:46.951Z,92.44
2018-06-05T02:01:46.869Z,92.54
2018-06-05T02:02:46.824Z,92.54
2018-06-05T02:03:46.781Z,92.83
2018-06-05T02:04:46.734Z,92.44
2018-06-05T02:05:46.721Z,92.25
2018-06-05T02:06:46.645Z,92.06
2018-06-05T02:07:46.597Z,92.83
2018-06-05T02:08:46.557Z,93.21
2018-06-05T02:09:46.532Z,92.63
2018-06-05T02:10:46.502Z,92.54
2018-06-05T02:11:46.441Z,92.92
2018-06-05T02:12:46.376Z,92.83
2018-06-05T02:13:46.332Z,92.73
2018-06-05T02:14:46.280Z,92.92
2018-06-05T02:15:46.236Z,93.02
2018-06-05T02:16:46.228Z,93.02
2018-06-05T02:17:46.189Z,93.02
2018-06-05T02:18:46.098Z,92.63
2018-06-05T02:19:46.055Z,92.92
2018-06-05T02:20:46.008Z,93.50
2018-06-05T02:21:45.964Z,93.59
2018-06-05T02:22:45.953Z,93.40
2018-06-05T02:23:45.874Z,93.79
2018-06-05T02:24:45.828Z,93.59
2018-06-05T02:25:45.784Z,93.21
2018-06-05T02:26:45.759Z,93.88
2018-06-05T02:27:45.691Z,95.07
2018-06-05T02:28:45.650Z,95.46
2018-06-05T02:29:45.599Z,95.94
2018-06-05T02:30:45.607Z,94.98
2018-06-05T02:31:45.508Z,95.07
2018-06-05T02:32:45.465Z,95.36
2018-06-05T02:33:45.416Z,94.89
2018-06-05T02:34:45.373Z,95.22
2018-06-05T02:35:45.363Z,94.55
2018-06-05T02:36:45.280Z,94.45
2018-06-05T02:37:45.236Z,93.98
2018-06-05T02:38:45.190Z,93.98
2018-06-05T02:39:45.143Z,94.07
2018-06-05T02:40:45.133Z,94.26
2018-06-05T02:41:45.053Z,93.98
2018-06-05T02:42:45.009Z,93.07
2018-06-05T02:43:44.988Z,92.97
2018-06-05T02:44:44.919Z,92.59
2018-06-05T02:45:44.909Z,92.97
2018-06-05T02:46:44.851Z,93.35
2018-06-05T02:47:44.783Z,94.70
2018-06-05T02:48:44.736Z,95.07
2018-06-05T02:49:44.688Z,96.80
2018-06-05T02:50:44.646Z,96.70
2018-06-05T02:51:44.621Z,95.94
2018-06-05T02:52:44.553Z,95.84
2018-06-05T02:53:44.505Z,95.17
2018-06-05T02:54:44.460Z,94.98
2018-06-05T02:55:44.426Z,94.50
2018-06-05T02:56:44.409Z,94.60
2018-06-05T02:57:44.366Z,94.70
2018-06-05T02:58:44.278Z,94.98
2018-06-05T02:59:44.234Z,96.13
2018-06-05T03:00:44.191Z,94.89
2018-06-05T03:01:44.140Z,95.36
2018-06-05T03:02:44.131Z,94.70
2018-06-05T03:03:44.051Z,94.98
2018-06-05T03:04:44.003Z,94.89
2018-06-05T03:05:44.010Z,94.98
2018-06-05T03:06:43.914Z,94.60
2018-06-05T03:07:43.870Z,94.70
2018-06-05T03:08:43.821Z,94.41
2018-06-05T03:09:43.775Z,94.60
2018-06-05T03:10:43.764Z,94.12
2018-06-05T03:11:43.685Z,94.12
2018-06-05T03:12:43.640Z,93.74
2018-06-05T03:13:43.592Z,94.02
2018-06-05T03:14:43.581Z,94.02
2018-06-05T03:15:43.501Z,94.02
2018-06-05T03:16:43.460Z,94.50
2018-06-05T03:17:43.412Z,93.35
2018-06-05T03:18:43.364Z,93.16
2018-06-05T03:19:43.351Z,92.59
2018-06-05T03:20:43.271Z,92.97
2018-06-05T03:47:39.237Z,94.02
2018-06-05T03:48:39.183Z,93.93
2018-06-05T03:49:39.132Z,93.93
2018-06-05T03:50:39.087Z,94.12
2018-06-05T03:51:39.005Z,93.55
2018-06-05T03:52:38.960Z,94.02
2018-06-05T03:53:38.949Z,93.93
2018-06-05T03:54:38.868Z,93.84
2018-06-05T03:55:38.823Z,94.12
2018-06-05T03:56:38.778Z,94.02
2018-06-05T03:57:38.766Z,94.50
2018-06-05T03:58:38.684Z,94.55
2018-06-05T03:59:38.639Z,94.74
2018-06-05T04:00:38.593Z,94.36
2018-06-05T04:01:38.548Z,95.22
2018-06-05T04:02:38.543Z,95.22
2018-06-05T04:03:38.457Z,94.84
2018-06-05T04:04:38.413Z,95.31
2018-06-05T04:05:38.367Z,95.41
2018-06-05T04:06:38.321Z,95.12
2018-06-05T04:07:38.305Z,94.74
2018-06-05T04:08:38.337Z,94.74
2018-06-05T04:09:38.181Z,95.31
2018-06-05T04:10:38.172Z,95.61
2018-06-05T04:11:38.091Z,95.03
2018-06-05T04:12:38.047Z,95.70
2018-06-05T04:13:37.996Z,95.70
2018-06-05T04:14:37.951Z,94.65
2018-06-05T04:15:37.941Z,95.61
2018-06-05T04:16:37.896Z,94.93
2018-06-05T04:17:37.814Z,94.74
2018-06-05T04:18:37.769Z,93.69
2018-06-05T04:19:37.758Z,93.74
2018-06-05T04:20:37.720Z,93.35
2018-06-05T04:21:37.631Z,93.26
2018-06-05T04:22:37.585Z,93.30
2018-06-05T04:23:37.540Z,93.74
2018-06-05T04:24:37.494Z,93.54
2018-06-05T04:25:37.488Z,93.93
2018-06-05T04:26:37.402Z,93.83
2018-06-05T04:27:37.363Z,93.54
2018-06-05T04:28:37.312Z,94.02
2018-06-05T04:29:37.267Z,94.21
2018-06-05T04:30:37.255Z,93.83
2018-06-05T04:31:37.177Z,93.93
2018-06-05T04:32:37.178Z,94.26
2018-06-05T04:33:37.084Z,93.93
2018-06-05T04:34:37.037Z,93.93
2018-06-05T04:35:36.998Z,93.88
2018-06-05T04:36:36.947Z,94.35
2018-06-05T04:37:36.944Z,94.02
2018-06-05T04:38:36.855Z,94.17
2018-06-05T04:39:36.834Z,94.55
2018-06-05T04:40:36.765Z,94.64
2018-06-05T04:41:36.723Z,95.22
2018-06-05T04:42:36.712Z,94.55
2018-06-05T04:43:36.732Z,94.84
2018-06-05T04:44:36.583Z,94.26
2018-06-05T04:45:36.539Z,94.26
2018-06-05T04:46:36.497Z,95.03
2018-06-05T04:47:36.482Z,94.45
2018-06-05T04:48:36.405Z,94.26
2018-06-05T04:49:36.361Z,94.45
2018-06-05T04:50:36.312Z,95.31
2018-06-05T04:51:36.270Z,95.12
2018-06-05T04:52:36.256Z,95.03
2018-06-05T04:53:36.216Z,94.93
2018-06-05T04:54:36.131Z,95.36
2018-06-05T04:55:36.120Z,95.22
2018-06-05T04:56:36.039Z,95.56
2018-06-05T04:57:35.995Z,95.07
2018-06-05T04:58:35.997Z,95.94
2018-06-05T04:59:35.905Z,95.36
2018-06-05T05:00:35.863Z,95.36
2018-06-05T05:01:35.840Z,95.26
2018-06-05T05:02:35.767Z,95.07
2018-06-05T05:03:35.770Z,95.56
2018-06-05T05:04:35.678Z,95.07
2018-06-05T05:05:35.636Z,95.07
2018-06-05T05:06:35.586Z,95.84
2018-06-05T05:07:35.544Z,95.07
2018-06-05T05:08:35.534Z,95.56
2018-06-05T05:09:35.453Z,95.26
2018-06-05T05:10:35.407Z,95.46
2018-06-05T05:11:35.400Z,95.56
2018-06-05T05:12:35.319Z,95.56
2018-06-05T05:13:35.314Z,94.98
2018-06-05T05:14:35.225Z,95.56
2018-06-05T05:15:35.232Z,95.56
2018-06-05T05:16:35.137Z,95.75
2018-06-05T05:17:35.091Z,95.36
2018-06-05T05:18:35.048Z,95.26
2018-06-05T05:19:35.005Z,95.75
2018-06-05T05:20:35.004Z,95.26
2018-06-05T05:21:34.913Z,95.46
2018-06-05T05:22:34.870Z,95.17
2018-06-05T05:23:34.822Z,94.89
2018-06-05T05:24:34.776Z,94.93
2018-06-05T05:25:34.770Z,95.03
2018-06-05T05:26:34.726Z,94.74
2018-06-05T05:27:34.640Z,95.12
2018-06-05T05:28:34.595Z,95.12
2018-06-05T05:29:34.555Z,95.31
2018-06-05T05:30:34.506Z,95.51
2018-06-05T05:31:34.504Z,94.64
2018-06-05T05:32:34.418Z,94.64
2018-06-05T05:33:34.376Z,95.03
2018-06-05T05:34:34.327Z,94.74
2018-06-05T05:35:34.283Z,94.74
2018-06-05T05:36:34.277Z,94.45
2018-06-05T05:37:34.197Z,94.84
2018-06-05T05:38:34.150Z,95.21
2018-06-05T05:39:34.141Z,95.51
2018-06-05T05:40:34.099Z,93.97
2018-06-05T05:41:34.019Z,94.35
2018-06-05T05:42:33.970Z,94.07
2018-06-05T05:43:33.963Z,94.17
2018-06-05T05:44:33.928Z,93.40
2018-06-05T05:45:33.841Z,93.21
2018-06-05T05:46:33.792Z,93.49
2018-06-05T05:47:33.747Z,93.63
2018-06-05T05:48:33.703Z,93.54
2018-06-05T05:49:33.714Z,93.59
2018-06-05T05:50:33.612Z,93.73
2018-06-05T05:51:33.568Z,93.44
2018-06-05T05:52:33.532Z,93.63
2018-06-05T05:53:33.485Z,93.63
2018-06-05T05:54:33.519Z,93.63
2018-06-05T05:55:33.397Z,93.44
2018-06-05T05:56:33.352Z,93.54
2018-06-05T05:57:33.341Z,93.73
2018-06-05T05:58:33.258Z,93.06
2018-06-05T05:59:33.212Z,92.86
2018-06-05T06:00:33.207Z,93.35
2018-06-05T06:01:33.128Z,93.44
2018-06-05T06:02:33.085Z,93.44
2018-06-05T06:03:33.040Z,93.63
2018-06-05T06:04:33.032Z,93.44
2018-06-05T06:05:32.950Z,92.96
2018-06-05T06:06:32.941Z,92.29
2018-06-05T06:07:32.898Z,92.77
2018-06-05T06:08:32.821Z,92.68
2018-06-05T06:09:32.777Z,92.39
2018-06-05T06:10:32.726Z,92.39
2018-06-05T06:11:32.717Z,92.48
2018-06-05T06:12:32.637Z,92.39
2018-06-05T06:13:32.593Z,92.19
2018-06-05T06:14:32.549Z,92.39
2018-06-05T06:15:32.540Z,92.19
2018-06-05T06:16:32.460Z,92.29
2018-06-05T06:17:32.451Z,92.39
2018-06-05T06:18:32.373Z,92.68
2018-06-05T06:19:32.330Z,92.29
2018-06-05T06:20:32.283Z,91.81
2018-06-05T06:21:32.240Z,92.77
2018-06-05T06:22:32.237Z,92.10
2018-06-05T06:23:32.152Z,92.86
2018-06-05T06:24:32.106Z,92.86
2018-06-05T06:25:32.063Z,92.48
2018-06-05T06:26:32.018Z,92.68
2018-06-05T06:27:32.025Z,92.29
2018-06-05T06:28:31.939Z,92.29
2018-06-05T06:29:31.887Z,92.63
2018-06-05T06:30:31.843Z,92.14
2018-06-05T06:31:31.803Z,92.14
2018-06-05T06:32:31.802Z,91.86
2018-06-05T06:33:31.711Z,91.76
2018-06-05T06:34:31.663Z,91.76
2018-06-05T06:35:31.623Z,91.76
2018-06-05T06:36:31.578Z,91.86
2018-06-05T06:37:31.569Z,91.66
2018-06-05T06:38:31.499Z,91.86
2018-06-05T06:39:31.445Z,91.66
2018-06-05T06:40:31.402Z,91.66
2018-06-05T06:41:31.358Z,91.71
2018-06-05T06:42:31.356Z,91.42
2018-06-05T06:43:31.270Z,91.33
2018-06-05T06:44:31.225Z,90.94
2018-06-05T06:45:31.182Z,91.33
2018-06-05T06:46:31.136Z,90.66
2018-06-05T06:47:31.127Z,90.46
2018-06-05T06:48:31.095Z,90.08
2018-06-05T06:49:31.011Z,90.27
2018-06-05T06:50:30.963Z,90.27
2018-06-05T06:51:30.920Z,90.27
2018-06-05T06:52:30.875Z,90.12
2018-06-05T06:53:30.887Z,89.93
2018-06-05T06:54:30.794Z,90.41
2018-06-05T06:55:30.746Z,89.93
2018-06-05T06:56:30.701Z,90.03
2018-06-05T06:57:30.660Z,89.26
2018-06-05T06:58:30.657Z,89.54
2018-06-05T06:59:30.596Z,89.30
2018-06-05T07:00:30.526Z,88.34
2018-06-05T07:01:30.488Z,88.06
2018-06-05T07:02:30.448Z,87.67
2018-06-05T07:03:30.440Z,87.71
2018-06-05T07:04:30.355Z,88.10
2018-06-05T07:05:30.311Z,87.52
2018-06-05T07:06:30.268Z,87.23
2018-06-05T07:07:30.229Z,86.79
2018-06-05T07:08:30.212Z,86.41
2018-06-05T07:09:30.141Z,86.41
2018-06-05T07:10:30.099Z,85.64
2018-06-05T07:11:30.094Z,86.31
2018-06-05T07:12:30.020Z,85.83
2018-06-05T07:13:29.972Z,86.46
2018-06-05T07:14:29.924Z,85.69
2018-06-05T07:15:29.884Z,86.36
2018-06-05T07:16:29.877Z,86.65
2018-06-05T07:17:29.796Z,86.08
2018-06-05T07:18:29.755Z,86.65
2018-06-05T07:19:29.765Z,85.64
2018-06-05T07:20:29.671Z,86.41
2018-06-05T07:21:29.627Z,86.02
2018-06-05T07:22:29.588Z,86.22
2018-06-05T07:23:29.540Z,86.41
2018-06-05T07:24:29.550Z,86.12
2018-06-05T07:25:29.455Z,85.83
2018-06-05T07:26:29.412Z,85.58
2018-06-05T07:27:29.373Z,84.91
2018-06-05T07:28:29.333Z,85.20
2018-06-05T07:29:29.320Z,84.72
2018-06-05T07:30:29.305Z,84.38
2018-06-05T07:31:29.203Z,84.28
2018-06-05T07:32:29.163Z,83.51
2018-06-05T07:33:29.154Z,83.12
2018-06-05T07:34:29.075Z,83.51
2018-06-05T07:35:29.033Z,83.12
2018-06-05T07:36:29.024Z,83.51
2018-06-05T07:37:28.951Z,83.41
2018-06-05T07:38:28.913Z,83.70
2018-06-05T07:39:28.915Z,83.31
2018-06-05T07:40:28.824Z,83.03
2018-06-05T07:41:28.788Z,83.31
2018-06-05T07:42:28.744Z,83.45
2018-06-05T07:43:28.701Z,82.97
2018-06-05T07:44:28.712Z,82.20
2018-06-05T07:45:28.619Z,82.87
2018-06-05T07:46:28.576Z,81.43
2018-06-05T07:47:28.534Z,81.81
2018-06-05T07:48:28.494Z,81.91
2018-06-05T07:49:28.489Z,80.85
2018-06-05T07:50:28.407Z,81.91
2018-06-05T07:51:28.371Z,81.72
2018-06-05T07:52:28.328Z,81.33
2018-06-05T07:53:28.321Z,81.18
2018-06-05T07:54:28.244Z,81.57
2018-06-05T07:55:28.205Z,80.89
2018-06-05T07:56:28.164Z,81.27
2018-06-05T07:57:28.122Z,80.31
2018-06-05T07:58:28.112Z,80.02
2018-06-05T07:59:28.038Z,80.69
2018-06-05T08:00:27.998Z,79.93
2018-06-05T08:01:27.957Z,79.83
2018-06-05T08:02:27.916Z,79.74
2018-06-05T08:03:27.920Z,79.49
2018-06-05T08:04:27.835Z,79.49
2018-06-05T08:05:27.794Z,79.29
2018-06-05T08:06:27.750Z,79.58
2018-06-05T08:07:27.711Z,78.91
2018-06-05T08:08:27.705Z,78.91
2018-06-05T08:09:27.631Z,78.66
2018-06-05T08:10:27.640Z,78.66
2018-06-05T08:11:27.547Z,78.36
2018-06-05T08:12:27.510Z,77.88
2018-06-05T08:13:27.475Z,77.01
2018-06-05T08:14:27.427Z,76.92
2018-06-05T08:15:27.418Z,76.86
2018-06-05T08:16:27.345Z,76.18
2018-06-05T08:17:27.337Z,75.99
2018-06-05T08:18:27.269Z,76.28
2018-06-05T08:19:27.224Z,76.18
2018-06-05T08:20:27.187Z,76.95
2018-06-05T08:21:27.145Z,76.09
2018-06-05T08:22:27.137Z,75.41
2018-06-05T08:23:27.067Z,75.60
2018-06-05T08:24:27.064Z,75.70
2018-06-05T08:25:26.985Z,75.60
2018-06-05T08:26:26.941Z,74.77
2018-06-05T08:27:26.901Z,75.02
2018-06-05T08:28:26.865Z,74.77
2018-06-05T08:29:26.861Z,74.58
2018-06-05T08:30:26.788Z,74.77
2018-06-05T08:31:26.744Z,74.32
2018-06-05T08:32:26.709Z,74.71
2018-06-05T08:33:26.667Z,74.32
2018-06-05T08:34:26.672Z,73.36
2018-06-05T08:35:26.583Z,73.74
2018-06-05T08:36:26.544Z,72.88
2018-06-05T08:37:26.503Z,72.81
2018-06-05T08:38:26.465Z,72.14
2018-06-05T08:39:26.457Z,72.14
2018-06-05T08:40:26.385Z,71.66
2018-06-05T08:41:26.345Z,71.56
2018-06-05T08:42:26.304Z,71.66
2018-06-05T08:43:26.294Z,72.42
2018-06-05T08:44:26.224Z,72.24
2018-06-05T08:45:26.189Z,71.59
2018-06-05T08:46:26.187Z,71.30
2018-06-05T08:47:26.114Z,70.56
2018-06-05T08:48:26.068Z,69.79
2018-06-05T08:49:26.030Z,69.01
2018-06-05T08:50:25.988Z,69.15
2018-06-05T08:51:25.984Z,68.56
2018-06-05T08:52:25.911Z,69.05
2018-06-05T08:53:25.871Z,69.73
2018-06-05T08:54:25.864Z,69.59
2018-06-05T08:55:25.795Z,69.59
2018-06-05T08:56:25.784Z,69.11
2018-06-05T08:57:25.718Z,67.98
2018-06-05T08:58:25.679Z,68.66
2018-06-05T08:59:25.640Z,68.37
2018-06-05T09:00:25.597Z,68.37
2018-06-05T09:01:25.601Z,68.37
2018-06-05T09:02:25.518Z,67.98
2018-06-05T09:03:25.483Z,68.40
2018-06-05T09:04:25.443Z,68.27
2018-06-05T09:05:25.508Z,68.47
2018-06-05T09:06:25.398Z,66.66
2018-06-05T09:07:25.327Z,66.11
2018-06-05T09:08:25.321Z,65.43
2018-06-05T09:09:25.249Z,64.56
2018-06-05T09:10:25.210Z,64.30
2018-06-05T09:11:25.173Z,64.78
2018-06-05T09:12:25.173Z,64.23
2018-06-05T09:13:25.096Z,62.98
2018-06-05T09:14:25.059Z,63.07
2018-06-05T09:15:25.019Z,63.56
2018-06-05T09:16:24.983Z,62.39
2018-06-05T09:17:24.974Z,62.29
2018-06-05T09:18:24.902Z,62.49
2018-06-05T09:19:24.897Z,63.36
2018-06-05T09:20:24.859Z,62.85
2018-06-05T09:21:24.821Z,63.04
2018-06-05T09:22:24.749Z,64.01
2018-06-05T09:23:24.711Z,64.11
2018-06-05T09:24:24.713Z,63.53
2018-06-05T09:25:24.672Z,64.01
2018-06-05T09:26:24.596Z,64.01
2018-06-05T09:27:24.560Z,63.82
2018-06-05T09:28:24.519Z,63.43
2018-06-05T09:29:24.513Z,63.36
2018-06-05T09:30:24.445Z,61.88
2018-06-05T09:31:24.406Z,63.26
2018-06-05T09:32:24.370Z,63.43
2018-06-05T09:33:24.364Z,64.20
2018-06-05T09:34:24.309Z,63.53
2018-06-05T09:35:24.299Z,63.07
2018-06-05T09:36:24.221Z,62.29
2018-06-05T09:37:24.181Z,62.04
2018-06-05T09:38:24.142Z,61.55
2018-06-05T09:39:24.109Z,61.19
2018-06-05T09:40:24.114Z,60.80
2018-06-05T09:41:24.030Z,60.22
2018-06-05T09:42:23.995Z,61.00
2018-06-05T09:43:23.956Z,60.12
2018-06-05T09:44:23.914Z,60.71
2018-06-05T09:45:23.926Z,60.61
2018-06-05T09:46:23.838Z,60.35
2018-06-05T09:47:23.800Z,60.54
2018-06-05T09:48:23.764Z,60.08
2018-06-05T09:49:23.727Z,59.31
2018-06-05T09:50:23.731Z,58.72
2018-06-05T09:51:23.653Z,59.50
2018-06-05T09:52:23.645Z,59.50
2018-06-05T09:53:23.577Z,59.41
2018-06-05T09:54:23.541Z,58.23
2018-06-05T09:55:23.535Z,59.01
2018-06-05T09:56:23.464Z,59.41
2018-06-05T09:57:23.460Z,58.33
2018-06-05T09:58:23.551Z,58.33
2018-06-05T09:59:23.354Z,58.14
2018-06-05T10:00:23.349Z,58.26
2018-06-05T10:01:23.333Z,57.97
2018-06-05T10:02:23.243Z,57.78
2018-06-05T10:03:23.205Z,57.97
2018-06-05T10:04:23.167Z,57.68
2018-06-05T10:05:23.131Z,58.07
2018-06-05T10:06:23.131Z,57.68
2018-06-05T10:07:23.055Z,58.36
2018-06-05T10:08:23.019Z,57.71
2018-06-05T10:09:22.985Z,57.71
2018-06-05T10:10:22.945Z,57.03
2018-06-05T10:11:22.961Z,57.71
2018-06-05T10:12:22.870Z,57.81
2018-06-05T10:13:22.836Z,57.12
2018-06-05T10:14:22.801Z,56.64
2018-06-05T10:15:22.763Z,57.78
2018-06-05T10:16:22.753Z,58.39
2018-06-05T10:17:22.687Z,59.07
2018-06-05T10:18:22.682Z,58.29
2018-06-05T10:19:22.650Z,57.90
2018-06-05T10:20:22.595Z,57.25
2018-06-05T10:21:22.542Z,57.81
2018-06-05T10:22:22.501Z,57.90
2018-06-05T10:23:22.507Z,58.39
2018-06-05T10:24:22.430Z,57.87
2018-06-05T10:25:22.398Z,58.46
2018-06-05T10:26:22.358Z,57.90
2018-06-05T10:27:22.320Z,57.22
2018-06-05T10:28:22.321Z,56.45
2018-06-05T10:29:22.255Z,56.54
2018-06-05T10:30:22.208Z,57.51
2018-06-05T10:31:22.178Z,57.90
2018-06-05T10:32:22.135Z,57.90
2018-06-05T10:33:22.142Z,57.35
2018-06-05T10:34:22.062Z,56.18
2018-06-05T10:35:22.027Z,58.03
2018-06-05T10:36:21.990Z,58.13
2018-06-05T10:37:21.965Z,56.57
2018-06-05T10:38:21.956Z,55.99
2018-06-05T10:39:21.879Z,56.21
2018-06-05T10:40:21.844Z,55.91
2018-06-05T10:41:21.808Z,55.72
2018-06-05T10:42:21.770Z,54.55
2018-06-05T10:43:21.767Z,55.33
2018-06-05T10:44:21.701Z,55.82
2018-06-05T10:45:21.694Z,55.52
2018-06-05T10:46:21.624Z,55.62
2018-06-05T10:47:21.589Z,55.43
2018-06-05T10:48:21.555Z,54.65
2018-06-05T10:49:21.548Z,56.01
2018-06-05T10:50:21.482Z,55.46
2018-06-05T10:51:21.445Z,55.55
2018-06-05T10:52:21.414Z,54.97
2018-06-05T10:53:21.381Z,54.50
2018-06-05T10:54:21.375Z,54.41
2018-06-05T10:55:21.310Z,53.73
2018-06-05T10:56:21.265Z,53.63
2018-06-05T10:57:21.232Z,53.56
2018-06-05T10:58:21.192Z,54.02
2018-06-05T10:59:21.191Z,54.31
2018-06-05T11:00:21.142Z,54.21
2018-06-05T11:01:21.081Z,54.41
2018-06-05T11:02:21.080Z,53.34
2018-06-05T11:03:21.015Z,52.56
2018-06-05T11:04:21.008Z,52.36
2018-06-05T11:05:20.943Z,53.66
2018-06-05T11:06:20.902Z,55.09
2018-06-05T11:07:20.867Z,54.41
2018-06-05T11:08:20.832Z,54.99
2018-06-05T11:09:20.843Z,54.60
2018-06-05T11:10:20.763Z,54.41
2018-06-05T11:11:20.728Z,55.29
2018-06-05T11:12:20.688Z,54.50
2018-06-05T11:13:20.655Z,54.41
2018-06-05T11:14:20.650Z,55.09
2018-06-05T11:15:20.622Z,54.41
2018-06-05T11:16:20.547Z,55.77
2018-06-05T11:17:20.509Z,54.99
2018-06-05T11:18:20.530Z,54.63
2018-06-05T11:19:20.438Z,53.85
2018-06-05T11:20:20.460Z,53.36
2018-06-05T11:21:20.370Z,52.68
2018-06-05T11:22:20.338Z,52.39
2018-06-05T11:23:20.295Z,52.39
2018-06-05T11:24:20.266Z,53.17
2018-06-05T11:25:20.251Z,54.24
2018-06-05T11:26:20.189Z,53.29
2018-06-05T11:27:20.157Z,52.19
2018-06-05T11:28:20.115Z,52.61
2018-06-05T11:29:20.083Z,53.68
2018-06-05T11:30:20.077Z,53.68
2018-06-05T11:31:20.060Z,54.05
2018-06-05T11:32:19.977Z,54.05
2018-06-05T11:33:19.942Z,52.58
2018-06-05T11:34:19.904Z,52.61
2018-06-05T11:35:19.869Z,52.02
2018-06-05T11:36:19.863Z,52.22
2018-06-05T11:37:19.800Z,50.98
2018-06-05T11:38:19.761Z,50.98
2018-06-05T11:39:19.725Z,50.98
2018-06-05T11:40:19.692Z,51.07
2018-06-05T11:41:19.691Z,51.34
2018-06-05T11:42:19.622Z,50.98
2018-06-05T11:43:19.590Z,50.98
2018-06-05T11:44:19.550Z,52.05
2018-06-05T11:45:19.547Z,51.86
2018-06-05T11:46:19.480Z,52.47
2018-06-05T11:47:19.442Z,51.78
2018-06-05T11:48:19.411Z,49.82
2018-06-05T11:49:19.374Z,50.22
2018-06-05T11:50:19.370Z,49.24
2018-06-05T11:51:19.301Z,50.12
2018-06-05T11:52:19.266Z,50.42
2018-06-05T11:53:19.265Z,49.82
2018-06-05T11:54:19.257Z,50.32
2018-06-05T11:55:19.160Z,49.92
2018-06-05T11:56:19.129Z,51.00
2018-06-05T11:57:19.093Z,51.39
2018-06-05T11:58:19.102Z,50.90
2018-06-05T11:59:19.022Z,50.34
2018-06-05T12:00:18.987Z,49.53
2018-06-05T12:01:18.956Z,49.33
2018-06-05T12:02:18.917Z,49.14
2018-06-05T12:03:18.924Z,50.12
2018-06-05T12:04:18.847Z,49.14
2018-06-05T12:05:18.811Z,49.82
2018-06-05T12:06:18.774Z,51.00
2018-06-05T12:07:18.741Z,51.39
2018-06-05T12:08:18.746Z,50.71
2018-06-05T12:09:18.674Z,49.82
2018-06-05T12:10:18.647Z,50.42
2018-06-05T12:11:18.633Z,50.90
2018-06-05T12:12:18.598Z,49.73
2018-06-05T12:13:18.538Z,49.73
2018-06-05T12:14:18.498Z,50.51
2018-06-05T12:15:18.486Z,50.61
2018-06-05T12:16:18.428Z,49.63
2018-06-05T12:17:18.425Z,49.24
2018-06-05T12:18:18.363Z,49.63
2018-06-05T12:19:18.321Z,49.26
2018-06-05T12:20:18.285Z,49.26
2018-06-05T12:21:18.294Z,50.15
2018-06-05T12:22:18.217Z,49.75
2018-06-05T12:23:18.181Z,49.16
2018-06-05T12:24:18.150Z,49.16
2018-06-05T12:25:18.111Z,48.28
2018-06-05T12:26:18.110Z,48.48
2018-06-05T12:27:18.043Z,48.77
2018-06-05T12:28:18.007Z,48.94
2018-06-05T12:29:17.973Z,49.04
2018-06-05T12:30:17.978Z,49.46
2018-06-05T12:31:17.906Z,48.94
2018-06-05T12:32:17.873Z,48.94
2018-06-05T12:33:17.834Z,49.24
2018-06-05T12:34:17.797Z,49.14
2018-06-05T12:35:17.794Z,50.02
2018-06-05T12:36:17.727Z,49.82
2018-06-05T12:37:17.695Z,49.14
2018-06-05T12:38:17.691Z,49.33
2018-06-05T12:39:17.624Z,48.85
2018-06-05T12:40:17.623Z,49.04
2018-06-05T12:41:17.559Z,49.04
2018-06-05T12:42:17.524Z,49.82
2018-06-05T12:43:17.484Z,49.73
2018-06-05T12:44:17.479Z,49.04
2018-06-05T12:45:17.413Z,49.73
2018-06-05T12:46:17.411Z,49.24
2018-06-05T12:47:17.347Z,49.04
2018-06-05T12:48:17.437Z,48.97
2018-06-05T12:49:17.280Z,48.65
2018-06-05T12:50:17.238Z,49.04
2018-06-05T12:51:17.202Z,49.33
2018-06-05T12:52:17.178Z,49.24
2018-06-05T12:53:17.167Z,49.63
2018-06-05T12:54:17.100Z,49.04
2018-06-05T12:55:17.062Z,48.46
2018-06-05T12:56:17.028Z,48.14
2018-06-05T12:57:17.025Z,48.46
2018-06-05T12:58:16.958Z,48.65
2018-06-05T12:59:16.924Z,48.65
2018-06-05T13:00:16.890Z,48.94
2018-06-05T13:01:16.854Z,48.65
2018-06-05T13:02:16.851Z,48.36
2018-06-05T13:03:16.784Z,48.94
2018-06-05T13:04:16.750Z,49.14
2018-06-05T13:05:16.719Z,48.94
2018-06-05T13:06:16.677Z,48.75
2018-06-05T13:07:16.681Z,48.75
2018-06-05T13:08:16.610Z,48.65
2018-06-05T13:09:16.580Z,48.65
2018-06-05T13:10:16.585Z,48.58
2018-06-05T13:11:16.506Z,48.38
2018-06-05T13:12:16.471Z,47.77
2018-06-05T13:13:16.437Z,48.85
2018-06-05T13:14:16.399Z,48.48
2018-06-05T13:15:16.419Z,48.87
2018-06-05T13:16:16.335Z,48.48
2018-06-05T13:17:16.314Z,47.80
2018-06-05T13:18:16.295Z,47.50